Flight Track Log - Related Links

Times and Time Zones

All times are in EDT time to prevent confusion due to time zone crossing. See the UAL4457 flight status page for this flight to view local times or setup timezone preferences in your user account.

Time Position Orientation Groundspeed Altitude Reporting Facility
EDT Latitude Longitude Course Direction KTS MPH feet Rate Location/Type
Tue 05:24:36 PM 37.9775 -84.6753 224° Southwest 218 251 4,300  Level Indianapolis Center
Tue 05:25:38 PM 37.9281 -84.7353 224° Southwest 234 269 7,000 2,371 Climbing Indianapolis Center
Tue 05:26:00 PM 37.8993 -84.9391 241° Southwest  Level FlightAware Approximate
Tue 05:26:40 PM 37.8908 -84.8239 242° Southwest 277 319 9,200  Level Indianapolis Center
Tue 05:27:00 PM 37.8501 -85.0497 241° Southwest  Level FlightAware Approximate
Tue 05:27:42 PM 37.8483 -84.9372 245° Southwest 302 348 11,000  Level Indianapolis Center
Tue 05:28:00 PM 37.8066 -85.1636 247° West  Level FlightAware Approximate
Tue 05:28:44 PM 37.8033 -85.0500 243° Southwest 339 390 13,000  Level Indianapolis Center
Tue 05:29:46 PM 37.7561 -85.1708 244° Southwest 374 430 14,400 1,488 Climbing Indianapolis Center
Tue 05:30:49 PM 37.7061 -85.2969 243° Southwest 396 456 16,100 1,680 Climbing Indianapolis Center
Tue 05:31:51 PM 37.6578 -85.4208 244° Southwest 396 456 17,900 1,839 Climbing Indianapolis Center
Tue 05:32:53 PM 37.6044 -85.5544 243° Southwest 400 460 19,900 1,790 Climbing Indianapolis Center
Tue 05:33:55 PM 37.5531 -85.6783 242° Southwest 399 459 21,600 1,548 Climbing Indianapolis Center
Tue 05:34:57 PM 37.5181 -85.8106 252° West 396 456 23,100 1,500 Climbing Indianapolis Center
Tue 05:35:59 PM 37.4825 -85.9708 254° West 407 468 24,700 1,355 Climbing Indianapolis Center
Tue 05:37:01 PM 37.4508 -86.1081 254° West 407 468 25,900 1,210 Climbing Indianapolis Center
Tue 05:38:03 PM 37.3950 -86.2350 241° Southwest 405 466 27,200 983 Climbing Indianapolis Center
Tue 05:38:57 PM 37.3503 -86.3417 242° Southwest 412 474 27,800 632 Climbing Memphis Center
Tue 05:39:57 PM 37.2981 -86.4694 243° Southwest 418 481 28,400 750 Climbing Memphis Center
Tue 05:40:57 PM 37.2436 -86.5997 242° Southwest 424 488 29,300 950 Climbing Memphis Center
Tue 05:41:57 PM 37.1892 -86.7272 242° Southwest 424 488 30,300 1,000 Climbing Memphis Center
Tue 05:42:57 PM 37.1344 -86.8547 242° Southwest 424 488 31,300 1,000 Climbing Memphis Center
Tue 05:43:57 PM 37.0797 -86.9844 242° Southwest 424 488 32,300 1,100 Climbing Memphis Center
Tue 05:44:57 PM 37.0250 -87.1142 242° Southwest 424 488 33,500 1,250 Climbing Memphis Center
Tue 05:45:57 PM 36.9697 -87.2411 241° Southwest 424 488 34,800 1,150 Climbing Memphis Center
Tue 05:46:57 PM 36.9128 -87.3756 242° Southwest 419 482 35,800 600 Climbing Memphis Center
Tue 05:47:57 PM 36.8594 -87.4994 242° Southwest 413 475 36,000 100 Climbing Memphis Center
Tue 05:48:57 PM 36.8039 -87.6231 241° Southwest 413 475 36,000  Level Memphis Center
Tue 05:49:57 PM 36.7522 -87.7442 242° Southwest 408 470 36,000  Level Memphis Center
Tue 05:50:57 PM 36.6983 -87.8675 241° Southwest 408 470 36,000  Level Memphis Center
Tue 05:51:57 PM 36.6467 -87.9856 241° Southwest 403 464 36,000  Level Memphis Center
Tue 05:52:57 PM 36.6469 -88.1200 270° West 390 449 36,000  Level Memphis Center
Tue 05:53:57 PM 36.6722 -88.2486 284° West 370 426 36,000  Level Memphis Center
Tue 05:54:57 PM 36.6492 -88.3783 258° West 376 433 36,000  Level Memphis Center
Tue 05:55:57 PM 36.6242 -88.5108 257° West 381 438 36,000  Level Memphis Center
Tue 05:56:57 PM 36.5992 -88.6433 257° West 392 451 36,000  Level Memphis Center
Tue 05:57:57 PM 36.5758 -88.7706 257° West 392 451 36,000  Level Memphis Center
Tue 05:58:57 PM 36.5503 -88.8975 256° West 392 451 36,000  Level Memphis Center
Tue 05:59:57 PM 36.5244 -89.0272 256° West 387 445 36,000  Level Memphis Center
Tue 06:00:57 PM 36.5031 -89.1514 258° West 387 445 36,000  Level Memphis Center
Tue 06:01:57 PM 36.4769 -89.2833 256° West 382 440 36,000  Level Memphis Center
Tue 06:02:57 PM 36.4572 -89.4022 258° West 387 445 36,000  Level Memphis Center
Tue 06:03:57 PM 36.4289 -89.5317 255° West 395 455 36,000  Level Memphis Center
Tue 06:04:57 PM 36.4025 -89.6531 255° West 390 449 36,000  Level Memphis Center
Tue 06:05:57 PM 36.3761 -89.7797 256° West 385 443 36,000  Level Memphis Center
Tue 06:06:57 PM 36.3517 -89.9086 257° West 379 436 36,000  Level Memphis Center
Tue 06:07:57 PM 36.3250 -90.0350 255° West 379 436 36,000  Level Memphis Center
Tue 06:08:57 PM 36.3003 -90.1586 256° West 379 436 36,000  Level Memphis Center
Tue 06:09:57 PM 36.2733 -90.2900 256° West 384 442 36,000  Level Memphis Center
Tue 06:10:57 PM 36.2461 -90.4214 256° West 384 442 36,000  Level Memphis Center
Tue 06:11:57 PM 36.2211 -90.5472 256° West 384 442 36,000  Level Memphis Center
Tue 06:12:57 PM 36.1936 -90.6783 255° West 389 448 36,000  Level Memphis Center
Tue 06:13:57 PM 36.1661 -90.8094 255° West 394 453 36,000  Level Memphis Center
Tue 06:14:57 PM 36.1364 -90.9431 255° West 399 459 36,000  Level Memphis Center
Tue 06:15:57 PM 36.1086 -91.0711 255° West 394 453 36,000  Level Memphis Center
Tue 06:16:57 PM 36.0808 -91.1994 255° West 394 453 36,000  Level Memphis Center
Tue 06:17:57 PM 36.0547 -91.3325 256° West 394 453 36,000  Level Memphis Center
Tue 06:18:57 PM 36.0244 -91.4606 254° West 394 453 36,000  Level Memphis Center
Tue 06:19:57 PM 35.9983 -91.5911 256° West 394 453 36,000  Level Memphis Center
Tue 06:20:57 PM 35.9697 -91.7267 255° West 394 453 36,000  Level Memphis Center
Tue 06:21:57 PM 35.9453 -91.8619 257° West 394 453 36,000  Level Memphis Center
Tue 06:22:57 PM 35.9144 -91.9947 254° West 394 453 36,000  Level Memphis Center
Tue 06:23:57 PM 35.8833 -92.1275 254° West 399 459 36,000  Level Memphis Center
Tue 06:24:57 PM 35.8542 -92.2625 255° West 399 459 36,000  Level Memphis Center
Tue 06:25:57 PM 35.8250 -92.3975 255° West 404 465 36,000  Level Memphis Center
Tue 06:26:57 PM 35.7936 -92.5325 254° West 409 471 36,000  Level Memphis Center
Tue 06:27:57 PM 35.7619 -92.6697 254° West 415 478 36,000  Level Memphis Center
Tue 06:28:57 PM 35.7322 -92.8044 255° West 415 478 36,000  Level Memphis Center
Tue 06:29:57 PM 35.7022 -92.9442 255° West 415 478 36,000  Level Memphis Center
Tue 06:30:57 PM 35.6703 -93.0786 254° West 415 478 36,000  Level Memphis Center
Tue 06:31:57 PM 35.6356 -93.2358 255° West 420 483 36,000  Level Memphis Center
Tue 06:32:57 PM 35.6031 -93.3750 254° West 420 483 36,000  Level Memphis Center
Tue 06:33:57 PM 35.5686 -93.5042 252° West 415 478 36,000  Level Memphis Center
Tue 06:34:57 PM 35.5378 -93.6433 255° West 415 478 36,000  Level Memphis Center
Tue 06:35:57 PM 35.5047 -93.7822 254° West 415 478 36,000  Level Memphis Center
Tue 06:36:57 PM 35.4719 -93.9186 254° West 415 478 36,000  Level Memphis Center
Tue 06:37:57 PM 35.4386 -94.0547 253° West 415 478 36,000  Level Memphis Center
Tue 06:38:57 PM 35.4053 -94.1933 254° West 415 478 36,000  Level Memphis Center
Tue 06:39:57 PM 35.3492 -94.3156 241° Southwest 407 468 36,000  Level Memphis Center
Tue 06:40:57 PM 35.2608 -94.4078 220° Southwest 413 475 36,000  Level Memphis Center
Tue 06:42:54 PM 35.0950 -94.5919 222° Southwest 440 506 36,000  Level Fort Worth Center
Tue 06:43:54 PM 35.0014 -94.6939 222° Southwest 433 498 36,000  Level Fort Worth Center
Tue 06:44:54 PM 34.9136 -94.7878 221° Southwest 433 498 36,000  Level Fort Worth Center
Tue 06:45:54 PM 34.8281 -94.8842 223° Southwest 425 489 36,000  Level Fort Worth Center
Tue 06:46:54 PM 34.7181 -94.9125 192° South 398 458 36,000  Level Fort Worth Center
Tue 06:47:54 PM 34.6217 -94.9911 214° Southwest 408 470 36,000  Level Fort Worth Center
Tue 06:48:54 PM 34.5358 -95.0892 223° Southwest 420 483 36,000  Level Fort Worth Center
Tue 06:49:54 PM 34.4478 -95.1897 223° Southwest 428 493 36,000  Level Fort Worth Center
Tue 06:50:54 PM 34.3600 -95.2878 223° Southwest 434 499 36,000  Level Fort Worth Center
Tue 06:51:54 PM 34.2758 -95.3828 223° Southwest 434 499 36,000  Level Fort Worth Center
Tue 06:52:54 PM 34.1897 -95.4778 222° Southwest 424 488 36,000  Level Fort Worth Center
Tue 06:53:54 PM 34.1014 -95.5750 222° Southwest 424 488 36,000  Level Fort Worth Center
Tue 06:54:54 PM 34.0172 -95.6694 223° Southwest 424 488 36,000  Level Fort Worth Center
Tue 06:55:54 PM 33.9308 -95.7664 223° Southwest 429 494 36,000  Level Fort Worth Center
Tue 06:56:54 PM 33.8467 -95.8606 223° Southwest 429 494 36,000  Level Fort Worth Center
Tue 06:57:54 PM 33.7622 -95.9544 223° Southwest 422 486 36,000  Level Fort Worth Center
Tue 06:58:54 PM 33.6839 -96.0406 222° Southwest 422 486 36,000  Level Fort Worth Center
Tue 06:59:54 PM 33.5889 -96.1442 222° Southwest 422 486 36,000  Level Fort Worth Center
Tue 07:00:54 PM 33.5103 -96.2300 222° Southwest 427 491 36,000  Level Fort Worth Center
Tue 07:01:54 PM 33.4194 -96.3308 223° Southwest 422 486 36,000  Level Fort Worth Center
Tue 07:02:54 PM 33.3431 -96.4164 223° Southwest 422 486 36,000  Level Fort Worth Center
Tue 07:03:54 PM 33.2497 -96.5192 223° Southwest 422 486 36,000  Level Fort Worth Center
Tue 07:04:54 PM 33.1669 -96.6119 223° Southwest 416 479 36,000  Level Fort Worth Center
Tue 07:05:54 PM 33.0794 -96.6522 201° Southwest 416 479 36,000  Level Fort Worth Center
Tue 07:06:54 PM 32.9353 -96.6361 175° South 409 471 36,000  Level Fort Worth Center
Tue 07:07:54 PM 32.8267 -96.6272 176° South 424 488 36,000  Level Fort Worth Center
Tue 07:08:54 PM 32.6994 -96.6161 176° South 424 488 36,000 -150 Level Fort Worth Center
Tue 07:09:54 PM 32.5928 -96.6069 176° South 424 488 35,700 -650 Descending Fort Worth Center
Tue 07:10:54 PM 32.4633 -96.5958 176° South 424 488 34,700 -950 Descending Fort Worth Center
Tue 07:11:54 PM 32.3547 -96.5869 176° South 424 488 33,800 -900 Descending Fort Worth Center
Tue 07:12:54 PM 32.2461 -96.5783 176° South 429 494 32,900 -1,000 Descending Fort Worth Center
Tue 07:13:54 PM 32.1125 -96.5672 176° South 438 504 31,800 -1,050 Descending Fort Worth Center
Tue 07:14:54 PM 31.9767 -96.5561 176° South 445 512 30,800 -1,000 Descending Fort Worth Center
Tue 07:15:54 PM 31.8514 -96.5450 176° South 450 518 29,800 -578 Descending Fort Worth Center
Tue 07:18:01 PM 31.6000 -96.5211 175° South 459 528 29,000 -255 Descending Houston Center
Tue 07:19:02 PM 31.4733 -96.4953 170° South 458 527 29,000 -98 Level Houston Center
Tue 07:20:04 PM 31.3239 -96.4411 163° South 466 536 28,800 -878 Descending Houston Center
Tue 07:21:05 PM 31.2008 -96.3936 162° South 468 539 27,200 -2,000 Descending Houston Center
Tue 07:22:07 PM 31.0769 -96.3428 161° South 466 536 24,700 -2,613 Descending Houston Center
Tue 07:23:09 PM 30.9550 -96.2961 162° South 456 525 21,800 -2,683 Descending Houston Center
Tue 07:24:10 PM 30.8353 -96.2528 163° South 447 514 19,200 -2,488 Descending Houston Center
Tue 07:25:12 PM 30.7200 -96.2144 164° South 431 496 16,700 -2,323 Descending Houston Center
Tue 07:26:14 PM 30.6061 -96.1817 166° South 419 482 14,400 -2,412 Descending Houston Center
Tue 07:26:49 PM 30.5378 -96.1633 167° South 397 457 12,800 -2,164 Descending Houston Center
Tue 07:27:15 PM 30.4994 -96.1533 167° South 391 450 12,200 -1,592 Descending Houston Center
Tue 07:27:38 PM 30.4567 -96.1483 174° South 343 395 11,500 -1,742 Descending Houston Center
Tue 07:28:17 PM 30.4056 -96.1356 168° South 343 395 10,400 -1,343 Descending Houston Center
Tue 07:28:45 PM 30.3650 -96.1056 147° Southeast 302 348 10,000 -295 Descending Houston Center
Tue 07:29:18 PM 30.3325 -96.0831 149° Southeast 305 351 10,100  Climbing Houston Center
Tue 07:29:46 PM 30.2950 -96.0481 141° Southeast 305 351 10,000  Descending Houston Center
Tue 07:30:20 PM 30.2708 -96.0189 134° Southeast 303 349 10,100  Climbing Houston Center
Tue 07:30:47 PM 30.2364 -95.9750 132° Southeast 311 358 10,000 -194 Descending Houston Center
Tue 07:31:22 PM 30.2183 -95.9428 123° Southeast 304 350 9,900 -787 Descending Houston Center
Tue 07:31:48 PM 30.1914 -95.8933 122° Southeast 294 338 9,200 -1,967 Descending Houston Center
Tue 07:32:23 PM 30.1656 -95.8478 123° Southeast 296 341 7,900 -2,361 Descending Houston Center
Tue 07:32:49 PM 30.1375 -95.8294 151° Southeast 280 322 6,800 -2,419 Descending Houston Center
Tue 07:33:25 PM 30.1069 -95.7931 134° Southeast 276 318 5,400 -2,361 Descending Houston Center
Tue 07:33:50 PM 30.0794 -95.7661 140° Southeast 265 305 4,400 -1,279 Descending Houston Center
Tue 07:34:26 PM 30.0511 -95.7397 141° Southeast 260 299 4,100 -1,082 Descending Houston Center
Tue 07:34:51 PM 30.0247 -95.7172 144° Southeast 246 283 3,300 -1,065 Descending Houston Center
Tue 07:35:28 PM 30.0019 -95.6886 133° Southeast 244 281 3,000 -197 Descending Houston Center
Tue 07:35:52 PM 30.0003 -95.6525 93° East 220 253 3,100 98 Climbing Houston Center
Tue 07:36:29 PM 29.9983 -95.6150 93° East 230 265 3,100 -98 Level Houston Center
Tue 07:36:53 PM 29.9961 -95.5856 95° East 202 232 3,000  Descending Houston Center
Tue 07:37:31 PM 29.9933 -95.5547 96° East 199 229 3,100 -98 Climbing Houston Center
Tue 07:37:54 PM 29.9931 -95.5278 91° East 169 194 2,900 -581 Descending Houston Center
Tue 07:38:33 PM 29.9925 -95.4986 91° East 181 208 2,500 -873 Descending Houston Center
Tue 07:38:49 PM 29.9925 -95.4750 90° East 178 205 2,100 -885 Descending Houston Center
Tue 07:39:34 PM 29.9939 -95.4411 87° East 180 207 1,600 -667 Descending Houston Center

Login

Don't have an account? Register now (free) for customized features, flight alerts, and more!